aviador You're here:

KTVY Decoded Metar

in
Report Time2017-08-19 14:55:00
UTC Time2017-08-19 15:01:28
Flight Rules vfr VFR
Wind170° at 06 kt
W.Decomp.*RWY 17: 6.0 kt HW -0 kt LCW
W.Rank170° ranks 2
Current wind is below 170° avg. (9.8)
Visibility9999 m
Phenomena:N/A
Clouds:N/A
Expected CloudBase > 8,400 ft AGL from Temp-Dew spread
CeilingNone
Temp23°C
Dew Point02°C (25% RH)
AAT19.2°C
QNH1019 hPa
Raw Report
METAR KTVY 191455Z AUTO 17006KT 10SM CLR 23/02 A3008 RMK AO2=

Extra information for KTVY:More info

Social comments